Time;durP1;ratioP1;P1;durP2;ratioP2;P2;SDS_P1;SDS_P2;PMS_P1;PMS_P2;Temp;Humidity;BMP_temperature;BMP_pressure;BME280_temperature;BME280_humidity;BME280_pressure;Samples;Min_cycle;Max_cycle;Signal;HPM_P1;HPM_P2
2022/04/26 03:38:05;;;;;;;6.60;3.53;;;9.60;99.90;;;;;;5052673;28;20196;-79
2022/04/26 03:40:32;;;;;;;3.03;2.83;;;9.50;99.90;;;;;;5052803;28;20614;-79
2022/04/26 03:43:02;;;;;;;3.20;3.00;;;9.60;99.90;;;;;;5053225;28;20222;-84
2022/04/26 03:45:29;;;;;;;5.63;3.23;;;9.50;99.90;;;;;;5052633;28;20191;-80
2022/04/26 03:47:55;;;;;;;4.23;3.13;;;9.50;99.90;;;;;;5052654;28;20542;-75
2022/04/26 03:50:24;;;;;;;4.03;3.50;;;9.50;99.90;;;;;;5052121;28;20432;-81
2022/04/26 03:52:52;;;;;;;4.93;2.80;;;9.50;99.90;;;;;;5052289;28;20203;-83
2022/04/26 03:55:20;;;;;;;5.77;3.23;;;9.50;99.90;;;;;;5052589;28;20214;-81
2022/04/26 03:57:47;;;;;;;4.87;3.73;;;9.50;99.90;;;;;;5052559;28;20271;-81
2022/04/26 04:00:15;;;;;;;4.07;3.60;;;9.60;99.90;;;;;;5052589;28;20230;-75
2022/04/26 04:02:41;;;;;;;9.63;4.80;;;9.50;99.90;;;;;;5052703;28;20281;-81
2022/04/26 04:05:09;;;;;;;7.40;3.97;;;9.60;99.90;;;;;;5052197;28;20233;-76
2022/04/26 04:07:37;;;;;;;5.27;3.97;;;9.60;99.90;;;;;;5052368;28;20286;-75
2022/04/26 04:10:04;;;;;;;4.53;3.50;;;9.50;99.90;;;;;;5052846;28;20213;-80
2022/04/26 04:12:31;;;;;;;3.33;3.03;;;9.60;99.90;;;;;;5052483;28;20210;-78
2022/04/26 04:14:58;;;;;;;3.60;3.30;;;9.60;99.90;;;;;;5052293;28;20457;-76
2022/04/26 04:17:25;;;;;;;4.13;3.77;;;9.60;99.90;;;;;;5052532;28;20206;-78
2022/04/26 04:19:51;;;;;;;6.67;3.30;;;9.60;99.90;;;;;;5052399;28;20222;-82
2022/04/26 04:22:18;;;;;;;4.33;3.80;;;9.60;99.90;;;;;;5052075;28;20199;-81
2022/04/26 04:24:46;;;;;;;5.07;3.30;;;9.60;99.90;;;;;;5052489;28;20190;-84
2022/04/26 04:27:13;;;;;;;4.67;3.67;;;9.50;99.90;;;;;;5052418;28;20209;-79
2022/04/26 04:29:40;;;;;;;4.10;3.77;;;9.50;99.90;;;;;;5052751;28;20195;-83
2022/04/26 04:32:08;;;;;;;4.63;3.93;;;9.40;99.90;;;;;;5052801;28;20202;-81
2022/04/26 04:34:35;;;;;;;4.33;3.47;;;9.40;99.90;;;;;;5051867;28;20226;-80
2022/04/26 04:37:01;;;;;;;3.50;3.20;;;9.40;99.90;;;;;;5052617;28;20224;-80
2022/04/26 04:39:28;;;;;;;4.60;4.00;;;9.30;99.90;;;;;;5051450;28;20890;-82
2022/04/26 04:41:56;;;;;;;7.43;3.80;;;9.30;99.90;;;;;;5052438;28;20209;-86
2022/04/26 04:44:23;;;;;;;5.60;3.50;;;9.40;99.90;;;;;;5052233;28;20211;-85
2022/04/26 04:46:50;;;;;;;4.50;4.10;;;9.30;99.90;;;;;;5052097;28;20232;-85
2022/04/26 04:49:17;;;;;;;4.97;3.83;;;9.30;99.90;;;;;;5051570;28;20213;-86
2022/04/26 04:51:44;;;;;;;4.40;3.80;;;9.30;99.90;;;;;;5052008;28;20673;-86
2022/04/26 04:54:17;;;;;;;4.10;3.83;;;9.50;99.90;;;;;;5052090;28;20604;-86
2022/04/26 04:56:43;;;;;;;11.50;3.53;;;9.50;99.90;;;;;;5052205;28;20194;-85
2022/04/26 04:59:12;;;;;;;9.63;3.93;;;9.40;99.90;;;;;;5052149;28;20551;-86
2022/04/26 05:01:39;;;;;;;5.20;4.00;;;9.30;99.90;;;;;;5037423;28;20279;-84
2022/04/26 05:04:07;;;;;;;4.60;4.00;;;9.30;99.90;;;;;;5035186;28;20435;-86
2022/04/26 05:06:34;;;;;;;4.57;4.17;;;9.30;99.90;;;;;;5034739;28;20199;-85
2022/04/26 05:09:01;;;;;;;4.47;3.97;;;9.30;99.90;;;;;;5035665;28;20207;-85
2022/04/26 05:11:28;;;;;;;4.77;4.30;;;9.30;99.90;;;;;;5036079;28;20202;-83
2022/04/26 05:13:55;;;;;;;6.67;3.83;;;9.30;99.90;;;;;;5035941;28;20210;-86
2022/04/26 05:16:23;;;;;;;10.07;4.83;;;9.20;99.90;;;;;;5034924;28;20204;-86
2022/04/26 05:18:50;;;;;;;4.80;3.80;;;9.20;99.90;;;;;;5035627;28;20253;-85
2022/04/26 05:21:17;;;;;;;7.80;3.67;;;9.30;99.90;;;;;;5035526;28;20234;-85
2022/04/26 05:26:33;;;;;;;4.53;4.00;;;9.50;99.90;;;;;;5035549;28;20652;-85
2022/04/26 05:29:06;;;;;;;6.45;4.30;;;9.50;99.90;;;;;;5034939;28;20435;-85
2022/04/26 05:31:34;;;;;;;4.50;4.07;;;9.60;99.90;;;;;;5035079;28;20192;-84
2022/04/26 05:34:01;;;;;;;4.40;4.00;;;9.60;99.90;;;;;;5035474;28;20207;-86
2022/04/26 05:36:28;;;;;;;3.80;3.60;;;9.40;99.90;;;;;;5035092;28;20203;-87
2022/04/26 05:38:55;;;;;;;5.27;3.80;;;9.40;99.90;;;;;;5035452;28;20207;-86
2022/04/26 05:41:22;;;;;;;5.17;3.90;;;9.40;99.90;;;;;;5034950;28;20310;-86
2022/04/26 05:43:48;;;;;;;4.17;3.77;;;9.40;99.90;;;;;;5035353;28;20187;-86
2022/04/26 05:46:15;;;;;;;5.57;4.40;;;9.30;99.90;;;;;;5034782;28;20218;-86
2022/04/26 05:48:43;;;;;;;4.10;3.80;;;9.40;99.90;;;;;;5035158;28;20569;-86
2022/04/26 05:51:10;;;;;;;4.93;3.83;;;9.50;99.90;;;;;;5034762;28;20275;-86
2022/04/26 05:53:37;;;;;;;5.27;3.60;;;9.40;99.90;;;;;;5033589;28;20209;-86
2022/04/26 05:56:05;;;;;;;4.67;3.20;;;9.40;99.90;;;;;;5034708;28;20203;-86
2022/04/26 05:58:32;;;;;;;4.63;3.33;;;9.40;99.90;;;;;;5034964;28;20192;-86
2022/04/26 06:00:59;;;;;;;7.00;4.17;;;9.40;99.90;;;;;;5034497;28;20234;-86
2022/04/26 06:03:26;;;;;;;5.70;4.50;;;9.50;99.90;;;;;;5034802;28;20221;-87
2022/04/26 06:05:55;;;;;;;4.53;3.97;;;9.70;99.90;;;;;;5034452;28;20235;-86
2022/04/26 06:08:23;;;;;;;9.20;3.37;;;9.60;99.90;;;;;;5034448;28;20602;-85
2022/04/26 06:10:50;;;;;;;3.87;3.57;;;9.70;99.90;;;;;;5034621;28;20200;-85
2022/04/26 06:13:17;;;;;;;6.27;4.23;;;9.70;99.90;;;;;;5035019;28;20211;-88
2022/04/26 06:15:44;;;;;;;3.80;3.40;;;9.60;99.90;;;;;;5033317;28;20242;-86
2022/04/26 06:18:11;;;;;;;6.13;3.53;;;9.60;99.90;;;;;;5034750;28;20247;-85
2022/04/26 06:20:38;;;;;;;7.47;4.13;;;9.60;99.90;;;;;;5034250;28;20250;-86
2022/04/26 06:23:06;;;;;;;6.70;4.00;;;9.70;99.90;;;;;;5034592;28;20229;-85
2022/04/26 06:25:36;;;;;;;3.63;3.33;;;9.80;99.90;;;;;;5034390;28;20211;-86
2022/04/26 06:28:04;;;;;;;6.63;3.80;;;9.90;99.90;;;;;;5034719;28;20206;-85
2022/04/26 06:30:31;;;;;;;8.07;4.00;;;9.80;99.90;;;;;;5034216;28;20211;-86
2022/04/26 06:32:57;;;;;;;7.27;3.67;;;9.60;99.90;;;;;;5033848;28;20195;-86
2022/04/26 06:35:25;;;;;;;6.57;3.10;;;9.60;99.90;;;;;;5048281;28;20198;-86
2022/04/26 06:37:52;;;;;;;4.83;3.23;;;9.50;99.90;;;;;;5053977;28;20542;-86
2022/04/26 06:40:20;;;;;;;3.67;3.40;;;9.60;99.90;;;;;;5054126;28;20214;-83
2022/04/26 06:42:47;;;;;;;4.13;3.80;;;9.60;99.90;;;;;;5053301;28;20440;-87
2022/04/26 06:45:14;;;;;;;5.37;3.03;;;9.60;99.90;;;;;;5053653;28;20209;-86
2022/04/26 06:47:42;;;;;;;4.57;3.30;;;9.70;99.90;;;;;;5053952;28;20654;-86
2022/04/26 06:50:09;;;;;;;4.70;3.50;;;9.70;99.90;;;;;;5053956;28;20676;-86
2022/04/26 06:52:36;;;;;;;3.73;3.30;;;9.70;99.90;;;;;;5053979;28;20269;-87
2022/04/26 06:55:03;;;;;;;3.80;3.47;;;9.80;99.90;;;;;;5054105;28;20206;-85
2022/04/26 06:57:31;;;;;;;4.13;3.43;;;9.90;99.90;;;;;;5053667;28;20198;-86
2022/04/26 06:59:58;;;;;;;5.07;3.83;;;9.90;99.90;;;;;;5053704;28;20260;-86
2022/04/26 07:02:25;;;;;;;8.03;3.80;;;9.80;99.90;;;;;;5053646;28;20293;-85
2022/04/26 07:04:52;;;;;;;5.20;3.93;;;9.80;99.90;;;;;;5053244;28;20222;-87
2022/04/26 07:07:19;;;;;;;4.00;3.70;;;9.80;99.90;;;;;;5053632;28;20218;-85
2022/04/26 07:09:45;;;;;;;5.70;4.20;;;9.90;99.90;;;;;;5053760;28;20575;-86
2022/04/26 07:12:12;;;;;;;7.33;4.50;;;9.90;99.90;;;;;;5053529;28;20191;-87
2022/04/26 07:14:40;;;;;;;5.20;4.40;;;9.90;99.90;;;;;;5053541;28;20203;-86
2022/04/26 07:17:07;;;;;;;5.83;4.33;;;9.90;99.90;;;;;;5053239;28;20199;-87
2022/04/26 07:19:35;;;;;;;4.33;3.87;;;9.90;99.90;;;;;;5053716;28;20198;-87
2022/04/26 07:22:03;;;;;;;7.23;4.63;;;10.00;99.90;;;;;;5053379;28;20269;-88
2022/04/26 07:24:31;;;;;;;4.10;3.80;;;10.10;99.90;;;;;;5051920;28;20206;-86
2022/04/26 07:26:58;;;;;;;4.60;4.27;;;10.10;99.90;;;;;;5051796;28;20261;-87
2022/04/26 07:29:27;;;;;;;11.03;4.93;;;10.20;99.90;;;;;;5053870;28;20203;-93
2022/04/26 07:31:55;;;;;;;6.27;5.43;;;10.40;99.90;;;;;;5052719;28;20496;-89
2022/04/26 07:34:21;;;;;;;7.37;5.10;;;10.60;99.90;;;;;;5045743;28;20191;-83
2022/04/26 07:36:48;;;;;;;5.00;4.53;;;10.70;99.90;;;;;;5052834;28;20195;-88
2022/04/26 07:39:17;;;;;;;6.47;4.77;;;10.70;99.90;;;;;;5052838;28;20194;-85
2022/04/26 07:41:45;;;;;;;6.87;5.10;;;10.60;99.90;;;;;;5053073;28;20241;-86
2022/04/26 07:44:12;;;;;;;6.87;5.63;;;10.80;99.90;;;;;;5053104;28;20199;-85
2022/04/26 07:46:39;;;;;;;6.67;5.27;;;11.10;99.90;;;;;;5052942;28;20221;-86
2022/04/26 07:49:08;;;;;;;6.03;5.47;;;11.00;99.90;;;;;;5052994;28;20218;-87
2022/04/26 07:51:35;;;;;;;8.37;5.40;;;11.00;99.90;;;;;;5052855;28;20210;-86
2022/04/26 07:54:02;;;;;;;7.97;5.70;;;11.20;99.90;;;;;;5052820;28;20555;-88
2022/04/26 07:56:31;;;;;;;8.48;6.50;;;11.30;99.90;;;;;;5052216;28;20433;-86
2022/04/26 07:58:59;;;;;;;7.37;5.73;;;11.50;99.90;;;;;;5052622;28;20202;-87
2022/04/26 08:01:28;;;;;;;10.20;5.30;;;11.50;99.90;;;;;;5053372;28;20233;-87
2022/04/26 08:03:55;;;;;;;8.73;5.57;;;11.50;99.90;;;;;;5052926;28;20605;-87
2022/04/26 08:06:25;;;;;;;10.47;5.70;;;11.30;99.90;;;;;;5053121;28;20213;-84
2022/04/26 08:08:53;;;;;;;7.03;5.40;;;11.40;99.90;;;;;;5052882;28;20688;-83
2022/04/26 08:11:20;;;;;;;6.87;5.57;;;11.30;99.90;;;;;;5052928;28;20197;-83
2022/04/26 08:13:47;;;;;;;9.33;5.43;;;11.00;99.90;;;;;;5052706;28;20198;-86
2022/04/26 08:16:14;;;;;;;8.13;6.30;;;10.90;99.90;;;;;;5052895;28;20206;-86
2022/04/26 08:18:41;;;;;;;7.20;5.47;;;11.00;99.90;;;;;;5053208;28;20198;-85
2022/04/26 08:21:09;;;;;;;7.00;5.20;;;10.90;99.90;;;;;;5052633;28;20234;-88
2022/04/26 08:27:22;;;;;;;7.07;5.27;;;10.90;99.90;;;;;;5052938;28;20213;-88
2022/04/26 08:29:09;;;;;;;5.77;5.27;;;11.00;99.90;;;;;;5054313;28;20228;-88
2022/04/26 08:31:37;;;;;;;8.03;5.27;;;11.30;99.90;;;;;;5054806;28;20286;-83
2022/04/26 08:34:04;;;;;;;8.43;5.10;;;11.50;99.90;;;;;;5052754;28;20206;-85
2022/04/26 08:36:31;;;;;;;5.50;5.00;;;11.70;99.90;;;;;;5052613;28;20205;-86
2022/04/26 08:39:00;;;;;;;10.03;5.43;;;11.60;99.90;;;;;;5057218;28;20212;-87
2022/04/26 08:41:27;;;;;;;6.90;4.43;;;11.40;99.90;;;;;;5056878;28;20234;-89
2022/04/26 08:43:54;;;;;;;6.07;4.57;;;11.30;99.90;;;;;;5056804;28;20199;-88
2022/04/26 08:50:59;;;;;;;5.93;4.80;;;11.30;99.90;;;;;;5056553;28;20683;-85
2022/04/26 08:52:02;;;;;;;5.37;4.20;;;11.70;99.90;;;;;;5055824;28;20201;-83
2022/04/26 08:54:31;;;;;;;9.27;4.67;;;11.70;99.90;;;;;;5056327;28;20242;-84
2022/04/26 08:56:58;;;;;;;9.80;5.20;;;11.80;99.90;;;;;;5056502;28;20198;-85
2022/04/26 08:59:25;;;;;;;5.30;4.67;;;11.80;99.90;;;;;;5056126;28;20684;-85
2022/04/26 09:02:13;;;;;;;5.23;4.67;;;12.00;99.90;;;;;;5056395;28;20561;-87
2022/04/26 09:04:40;;;;;;;6.80;4.50;;;12.00;99.90;;;;;;5057106;28;20685;-86
2022/04/26 09:07:11;;;;;;;7.30;4.33;;;12.20;99.90;;;;;;5057517;28;20218;-86
2022/04/26 09:09:41;;;;;;;8.52;4.88;;;12.40;99.90;;;;;;5057683;28;20437;-86
2022/04/26 09:12:12;;;;;;;11.63;5.10;;;12.50;99.90;;;;;;5056985;28;20202;-86
2022/04/26 09:14:48;;;;;;;4.70;4.27;;;12.60;99.90;;;;;;5056358;28;20187;-87
2022/04/26 09:17:17;;;;;;;5.40;4.87;;;12.60;99.90;;;;;;5056752;28;20278;-86
2022/04/26 09:19:46;;;;;;;8.93;5.03;;;12.70;99.90;;;;;;5056934;28;20187;-86
2022/04/26 09:22:18;;;;;;;30.03;5.33;;;13.20;99.90;;;;;;5056515;28;20328;-86
2022/04/26 09:24:56;;;;;;;5.73;4.40;;;13.40;99.90;;;;;;5056093;28;20202;-86
2022/04/26 09:27:24;;;;;;;5.30;4.77;;;13.30;99.90;;;;;;5056509;28;20206;-89
2022/04/26 09:29:50;;;;;;;7.13;4.40;;;12.80;99.90;;;;;;5056643;28;20202;-87
2022/04/26 09:32:18;;;;;;;6.30;4.30;;;12.70;99.90;;;;;;5056428;28;20186;-86
2022/04/26 09:34:44;;;;;;;7.80;4.70;;;12.80;99.90;;;;;;5056266;28;20460;-87
2022/04/26 09:37:11;;;;;;;6.23;4.07;;;13.00;99.90;;;;;;5055185;28;20228;-88
2022/04/26 09:39:39;;;;;;;7.53;3.53;;;13.10;99.90;;;;;;5057419;28;20215;-87
2022/04/26 09:42:08;;;;;;;6.83;3.70;;;13.10;99.90;;;;;;5056053;28;20715;-86
2022/04/26 09:44:38;;;;;;;3.43;3.10;;;13.20;99.90;;;;;;5056476;28;20217;-87
2022/04/26 09:47:05;;;;;;;9.60;3.17;;;13.40;99.90;;;;;;5056085;28;20599;-86
2022/04/26 09:49:37;;;;;;;4.17;2.50;;;13.40;99.90;;;;;;5055297;28;20188;-87
2022/04/26 09:52:07;;;;;;;3.67;2.30;;;13.80;99.90;;;;;;5060987;28;20577;-85
2022/04/26 09:54:37;;;;;;;4.33;2.27;;;13.80;99.90;;;;;;5067639;28;20229;-86
2022/04/26 09:57:08;;;;;;;4.33;2.57;;;13.60;99.90;;;;;;5067237;28;20199;-87
2022/04/26 09:59:39;;;;;;;3.30;3.00;;;13.30;99.90;;;;;;5065827;28;20881;-87
2022/04/26 10:02:08;;;;;;;3.47;2.70;;;13.20;99.90;;;;;;5060424;28;21080;-82
2022/04/26 10:04:39;;;;;;;4.97;3.53;;;13.20;99.90;;;;;;5061074;28;20288;-88
2022/04/26 10:07:13;;;;;;;5.83;4.33;;;13.20;99.90;;;;;;5058240;28;20261;-83
2022/04/26 10:09:45;;;;;;;3.47;3.17;;;13.10;99.90;;;;;;5059902;28;20212;-84
2022/04/26 10:12:17;;;;;;;7.47;3.60;;;13.30;99.90;;;;;;5058385;28;20215;-85
2022/04/26 10:14:44;;;;;;;5.97;3.40;;;13.30;99.90;;;;;;5057235;28;20240;-87
2022/04/26 10:17:13;;;;;;;4.93;3.87;;;13.20;99.90;;;;;;5059359;28;20219;-87
2022/04/26 10:19:42;;;;;;;5.60;3.97;;;13.20;99.90;;;;;;5059915;28;20205;-87
2022/04/26 10:22:11;;;;;;;8.30;4.23;;;13.30;99.90;;;;;;5061558;28;20235;-84
2022/04/26 10:24:40;;;;;;;7.18;4.25;;;13.50;99.90;;;;;;5057303;28;20418;-85
2022/04/26 10:27:23;;;;;;;7.40;3.73;;;13.60;99.90;;;;;;5060587;28;20280;-86
2022/04/26 10:29:50;;;;;;;9.27;3.20;;;13.50;99.90;;;;;;5058132;28;20286;-87
2022/04/26 10:32:34;;;;;;;3.83;3.37;;;13.20;99.90;;;;;;5055732;28;20219;-86
2022/04/26 10:35:31;;;;;;;4.90;3.70;;;13.20;99.90;;;;;;5057273;28;20211;-86
2022/04/26 10:38:12;;;;;;;8.57;3.57;;;13.20;99.90;;;;;;5057957;28;20206;-88
2022/04/26 10:41:09;;;;;;;5.10;4.03;;;13.30;99.90;;;;;;5055435;28;20210;-87
2022/04/26 10:43:38;;;;;;;6.90;3.43;;;13.10;99.90;;;;;;5045817;28;20197;-88
2022/04/26 10:46:12;;;;;;;4.13;3.63;;;13.30;99.90;;;;;;5060505;28;20243;-88
2022/04/26 10:48:39;;;;;;;6.75;4.10;;;13.30;99.90;;;;;;5059076;28;20438;-87
2022/04/26 10:51:34;;;;;;;5.33;4.07;;;13.40;99.90;;;;;;5058487;28;20582;-88
2022/04/26 10:54:02;;;;;;;6.03;3.87;;;13.70;99.90;;;;;;5059997;28;20216;-88
2022/04/26 10:56:29;;;;;;;7.13;3.83;;;13.70;99.90;;;;;;5059973;28;20217;-88
2022/04/26 10:58:57;;;;;;;6.97;3.83;;;13.80;99.90;;;;;;5056567;28;20216;-88
2022/04/26 11:01:24;;;;;;;5.53;3.83;;;13.80;99.90;;;;;;5054432;28;20213;-84
2022/04/26 11:03:53;;;;;;;6.90;4.10;;;13.60;99.90;;;;;;5055878;28;20340;-87
2022/04/26 11:06:37;;;;;;;4.70;3.80;;;13.70;99.90;;;;;;5057079;28;20225;-83
2022/04/26 11:09:08;;;;;;;4.97;4.03;;;13.80;99.90;;;;;;5051443;28;20614;-84
2022/04/26 11:11:51;;;;;;;8.23;4.17;;;13.90;99.90;;;;;;5055602;28;20201;-85
2022/04/26 11:14:27;;;;;;;5.50;3.90;;;14.00;99.90;;;;;;5061507;28;20429;-88
2022/04/26 11:16:55;;;;;;;5.67;4.03;;;13.90;99.90;;;;;;5067332;28;20215;-86
2022/04/26 11:19:28;;;;;;;5.77;4.10;;;14.00;99.90;;;;;;5067626;28;20270;-89
2022/04/26 11:21:55;;;;;;;6.13;4.10;;;13.90;99.90;;;;;;5068026;28;20253;-87
2022/04/26 11:29:54;;;;;;;4.53;3.70;;;14.10;99.90;;;;;;5054823;28;20208;-84
2022/04/26 11:32:31;;;;;;;6.27;4.13;;;14.20;99.90;;;;;;5054454;28;20206;-83
2022/04/26 11:34:58;;;;;;;5.50;4.05;;;14.00;99.90;;;;;;5053141;28;20437;-83
2022/04/26 11:37:25;;;;;;;3.80;3.33;;;14.00;99.90;;;;;;5056339;28;20202;-88
2022/04/26 11:39:52;;;;;;;6.37;3.73;;;14.10;99.90;;;;;;5065575;28;20216;-88
2022/04/26 11:42:20;;;;;;;5.23;3.93;;;14.20;99.90;;;;;;5065384;28;20234;-85
2022/04/26 11:44:58;;;;;;;3.60;3.30;;;14.30;99.90;;;;;;5065597;28;20221;-89
2022/04/26 11:47:38;;;;;;;5.47;3.67;;;14.30;99.90;;;;;;5063670;28;20212;-87
2022/04/26 11:50:13;;;;;;;4.37;3.57;;;14.40;99.90;;;;;;5065308;28;20189;-89
2022/04/26 11:52:42;;;;;;;3.92;3.60;;;14.40;99.90;;;;;;5064149;28;20432;-88
2022/04/26 11:55:19;;;;;;;4.10;3.67;;;14.70;99.90;;;;;;5065281;28;20269;-87
2022/04/26 11:57:47;;;;;;;6.93;3.53;;;14.70;99.90;;;;;;5061147;28;20224;-87
2022/04/26 12:00:18;;;;;;;4.87;3.40;;;14.80;99.90;;;;;;5057175;28;20263;-88
2022/04/26 12:02:47;;;;;;;5.07;3.40;;;14.60;99.80;;;;;;5062610;28;20229;-88
2022/04/26 12:05:15;;;;;;;4.33;3.40;;;14.60;99.90;;;;;;5065762;28;20232;-88
2022/04/26 12:07:42;;;;;;;4.50;3.90;;;14.60;99.10;;;;;;5066011;28;20441;-88
2022/04/26 12:10:29;;;;;;;5.33;3.60;;;14.60;99.70;;;;;;5065262;28;20191;-87
2022/04/26 12:13:02;;;;;;;8.93;4.17;;;14.60;99.80;;;;;;5061163;28;20241;-88
2022/04/26 12:15:32;;;;;;;4.40;4.00;;;14.60;99.90;;;;;;5059106;28;20210;-87
2022/04/26 12:18:08;;;;;;;4.23;3.80;;;14.70;99.20;;;;;;5055125;28;20212;-87
2022/04/26 12:20:36;;;;;;;4.47;3.50;;;14.80;98.60;;;;;;5054356;28;20202;-87
2022/04/26 12:23:04;;;;;;;4.97;3.87;;;14.80;99.40;;;;;;5054052;28;20230;-88
2022/04/26 12:25:33;;;;;;;5.25;4.63;;;15.00;99.30;;;;;;5058331;28;20443;-88
2022/04/26 12:28:07;;;;;;;6.03;4.93;;;14.90;99.40;;;;;;5054186;28;20200;-87
2022/04/26 12:30:38;;;;;;;5.67;4.20;;;15.10;99.90;;;;;;5053706;28;20208;-84
2022/04/26 12:33:06;;;;;;;4.53;3.83;;;15.20;98.60;;;;;;5053564;28;20581;-87
2022/04/26 12:35:33;;;;;;;5.47;5.00;;;15.30;98.60;;;;;;5053868;28;20249;-88
2022/04/26 12:38:07;;;;;;;8.23;4.30;;;15.40;97.80;;;;;;5054080;28;20199;-87
2022/04/26 12:40:34;;;;;;;5.67;3.80;;;15.50;98.30;;;;;;5053544;28;20668;-87
2022/04/26 12:43:03;;;;;;;5.10;3.43;;;15.50;97.50;;;;;;5053276;28;20293;-86
2022/04/26 12:45:30;;;;;;;4.70;4.13;;;15.50;97.10;;;;;;5054975;28;20641;-90
2022/04/26 12:50:56;;;;;;;4.37;3.80;;;14.80;98.10;;;;;;5057195;28;20201;-88
2022/04/26 12:53:25;;;;;;;5.80;4.37;;;15.10;98.30;;;;;;5063084;28;20203;-88
2022/04/26 12:55:54;;;;;;;4.47;4.07;;;15.30;97.80;;;;;;5067234;28;20197;-89
2022/04/26 12:58:36;;;;;;;5.07;4.27;;;15.60;97.60;;;;;;5067507;28;20186;-88
2022/04/26 13:01:04;;;;;;;7.22;4.95;;;15.40;98.40;;;;;;5063383;28;20433;-88
2022/04/26 13:03:34;;;;;;;7.93;4.30;;;15.50;98.60;;;;;;5063985;28;20228;-87
2022/04/26 13:06:10;;;;;;;6.33;4.07;;;15.60;99.20;;;;;;5065196;28;20188;-88
2022/04/26 13:08:39;;;;;;;4.23;3.80;;;15.90;99.20;;;;;;5065172;28;20218;-88
2022/04/26 13:11:09;;;;;;;4.87;4.17;;;15.60;99.20;;;;;;5062747;28;20203;-88
2022/04/26 13:13:39;;;;;;;7.27;4.03;;;15.40;99.50;;;;;;5056121;28;20198;-87
2022/04/26 13:16:06;;;;;;;5.73;4.30;;;15.70;99.90;;;;;;5053498;28;20199;-87
2022/04/26 13:18:35;;;;;;;6.30;4.43;;;15.80;98.90;;;;;;5058611;28;20448;-89
2022/04/26 13:21:05;;;;;;;4.60;4.20;;;15.40;99.00;;;;;;5057071;28;20454;-89
2022/04/26 13:23:41;;;;;;;5.53;4.20;;;15.20;98.90;;;;;;5053789;28;20219;-83
2022/04/26 13:26:08;;;;;;;6.03;4.30;;;15.10;99.10;;;;;;5056038;28;20194;-83
2022/04/26 13:28:34;;;;;;;4.90;3.60;;;15.30;98.60;;;;;;5055561;28;20202;-83
2022/04/26 13:31:02;;;;;;;4.90;4.50;;;15.30;98.90;;;;;;5055448;28;20198;-83
2022/04/26 13:33:30;;;;;;;6.37;4.80;;;15.50;99.60;;;;;;5056111;28;20191;-83
2022/04/26 13:36:04;;;;;;;4.50;4.10;;;15.40;98.80;;;;;;5056154;28;20210;-83
2022/04/26 13:38:31;;;;;;;5.80;4.40;;;15.50;99.50;;;;;;5055900;28;20190;-83
2022/04/26 13:41:04;;;;;;;8.10;4.90;;;15.60;99.20;;;;;;5055945;28;20229;-79
2022/04/26 13:43:31;;;;;;;5.07;4.20;;;15.30;99.20;;;;;;5055367;28;20577;-80
2022/04/26 13:45:58;;;;;;;7.70;4.70;;;15.30;99.10;;;;;;5055203;28;20577;-81
2022/04/26 13:48:25;;;;;;;6.80;4.27;;;15.00;98.60;;;;;;5055366;28;20529;-80
2022/04/26 13:50:51;;;;;;;5.57;4.80;;;15.40;98.90;;;;;;5055599;28;20214;-81
2022/04/26 13:53:27;;;;;;;7.07;4.20;;;15.30;99.50;;;;;;5055576;28;20202;-79
2022/04/26 13:55:54;;;;;;;9.20;4.32;;;15.80;99.30;;;;;;5055108;28;20477;-82
2022/04/26 13:58:23;;;;;;;7.43;5.07;;;15.60;99.40;;;;;;5054951;28;20222;-81
2022/04/26 14:00:49;;;;;;;5.87;4.47;;;15.70;99.90;;;;;;5054876;28;20564;-81
2022/04/26 14:03:16;;;;;;;6.50;4.73;;;16.00;99.50;;;;;;5054877;28;20235;-81
2022/04/26 14:05:44;;;;;;;7.70;5.00;;;15.90;99.40;;;;;;5054906;28;20242;-82
2022/04/26 14:08:13;;;;;;;6.80;4.47;;;15.70;98.90;;;;;;5054995;28;20211;-81
2022/04/26 14:10:42;;;;;;;6.37;4.80;;;15.60;99.60;;;;;;5054332;28;20206;-80
2022/04/26 14:13:10;;;;;;;5.20;4.47;;;15.50;99.10;;;;;;5054806;28;20204;-81
2022/04/26 14:23:49;;;;;;;5.27;4.30;;;16.60;98.10;;;;;;5035277;28;20231;-79
2022/04/26 14:26:18;;;;;;;5.07;4.57;;;15.90;98.40;;;;;;5034359;28;20298;-80
2022/04/26 14:28:45;;;;;;;6.97;4.63;;;15.60;99.10;;;;;;5033894;28;20204;-80
2022/04/26 14:31:12;;;;;;;5.30;4.30;;;15.50;99.00;;;;;;5034824;28;20635;-81
2022/04/26 14:33:39;;;;;;;5.70;4.77;;;15.40;99.30;;;;;;5035756;28;20250;-83
2022/04/26 14:36:06;;;;;;;7.93;4.77;;;15.40;99.20;;;;;;5033882;28;20681;-82
2022/04/26 14:38:33;;;;;;;6.03;4.40;;;15.50;99.10;;;;;;5034826;28;20290;-83
2022/04/26 14:41:00;;;;;;;6.20;4.37;;;15.50;98.70;;;;;;5034752;28;20727;-85
2022/04/26 14:43:28;;;;;;;6.60;4.10;;;15.30;98.80;;;;;;5034111;28;20230;-85
2022/04/26 14:45:55;;;;;;;5.90;3.20;;;15.20;98.80;;;;;;5034080;28;20207;-83
2022/04/26 14:48:23;;;;;;;4.40;3.60;;;15.50;98.60;;;;;;5034877;28;20194;-83
2022/04/26 14:50:50;;;;;;;9.57;4.07;;;15.50;97.90;;;;;;5034396;28;20209;-84
2022/04/26 14:53:18;;;;;;;4.70;3.87;;;15.30;98.70;;;;;;5034343;28;20210;-82
2022/04/26 14:55:45;;;;;;;5.53;4.30;;;15.40;98.50;;;;;;5051121;28;20524;-82
2022/04/26 14:58:14;;;;;;;4.87;3.70;;;15.50;98.30;;;;;;5054221;28;20204;-82
2022/04/26 15:00:42;;;;;;;5.60;3.70;;;15.60;98.50;;;;;;5034397;28;20192;-84
2022/04/26 15:03:11;;;;;;;4.33;3.97;;;15.50;98.50;;;;;;5044872;28;20581;-84
2022/04/26 15:05:38;;;;;;;5.30;3.90;;;15.40;98.60;;;;;;5066010;28;20252;-84
2022/04/26 15:10:51;;;;;;;6.37;4.50;;;15.20;99.20;;;;;;5069877;28;20687;-85
2022/04/26 15:18:49;;;;;;;6.37;4.37;;;14.90;99.70;;;;;;5064235;28;20322;-89
2022/04/26 15:21:18;;;;;;;6.50;3.97;;;15.00;99.60;;;;;;5076891;28;20212;-89
2022/04/26 15:23:46;;;;;;;6.33;4.27;;;15.10;99.70;;;;;;5072515;28;20226;-86
2022/04/26 15:26:16;;;;;;;7.13;4.30;;;14.90;99.90;;;;;;5059343;28;20191;-88
2022/04/26 15:28:43;;;;;;;4.47;4.00;;;14.90;99.70;;;;;;5058961;28;20206;-89
2022/04/26 15:31:16;;;;;;;5.03;4.47;;;14.90;99.70;;;;;;5060219;28;20206;-88
2022/04/26 15:33:50;;;;;;;7.97;4.30;;;15.20;99.70;;;;;;5062392;28;20206;-88
2022/04/26 15:36:19;;;;;;;7.20;4.77;;;15.30;99.70;;;;;;5061448;28;20194;-88
2022/04/26 15:38:47;;;;;;;6.90;4.20;;;15.80;99.60;;;;;;5054958;28;20214;-87
2022/04/26 15:41:17;;;;;;;7.17;4.33;;;15.90;99.30;;;;;;5037727;28;20651;-87
2022/04/26 15:43:44;;;;;;;5.43;4.13;;;16.10;99.40;;;;;;5038879;28;20224;-85
2022/04/26 15:46:13;;;;;;;5.57;4.00;;;16.40;98.90;;;;;;5034193;28;20204;-86
2022/04/26 15:48:53;;;;;;;4.47;4.07;;;16.40;98.60;;;;;;5040333;28;20219;-86
2022/04/26 15:51:22;;;;;;;5.57;3.70;;;16.50;98.50;;;;;;5053858;28;20562;-85
2022/04/26 15:53:49;;;;;;;5.75;4.38;;;16.80;98.20;;;;;;5050075;28;21370;-86
2022/04/26 15:56:22;;;;;;;5.13;3.80;;;16.80;98.20;;;;;;5049040;28;20202;-86
2022/04/26 15:58:50;;;;;;;6.90;4.20;;;17.10;97.90;;;;;;5053155;28;20218;-86
2022/04/26 16:01:18;;;;;;;4.57;4.00;;;17.00;98.30;;;;;;5052707;28;20202;-86
2022/04/26 16:03:45;;;;;;;6.23;4.40;;;16.90;98.00;;;;;;5051060;28;20236;-85
2022/04/26 16:06:13;;;;;;;6.37;3.97;;;16.90;98.00;;;;;;5048383;28;20217;-87
2022/04/26 16:08:40;;;;;;;6.20;3.97;;;16.90;98.20;;;;;;5073498;28;20239;-88
2022/04/26 16:22:10;;;;;;;4.70;3.67;;;15.80;99.30;;;;;;5054562;28;20212;-88
2022/04/26 16:24:39;;;;;;;7.23;3.60;;;15.70;99.40;;;;;;5053394;28;20232;-86
2022/04/26 16:27:06;;;;;;;7.23;3.97;;;15.60;99.60;;;;;;5051217;28;20199;-87
2022/04/26 16:29:34;;;;;;;4.50;3.33;;;15.30;99.90;;;;;;5070580;28;20659;-87
2022/04/26 16:32:09;;;;;;;5.33;3.63;;;15.20;99.90;;;;;;5058370;28;20205;-86
2022/04/26 16:34:37;;;;;;;5.47;3.50;;;15.30;99.90;;;;;;5055276;28;20425;-86
2022/04/26 16:37:05;;;;;;;3.70;3.40;;;15.30;99.60;;;;;;5062180;28;20253;-88
2022/04/26 16:39:32;;;;;;;4.97;3.50;;;14.70;99.90;;;;;;5057392;28;20209;-87
2022/04/26 16:41:59;;;;;;;4.73;3.67;;;15.10;99.90;;;;;;5066557;28;20201;-86
2022/04/26 16:44:25;;;;;;;4.80;3.40;;;15.10;99.90;;;;;;5053842;28;20226;-86
2022/04/26 16:46:52;;;;;;;4.93;3.20;;;15.20;99.90;;;;;;5045977;28;20198;-92
2022/04/26 16:49:32;;;;;;;4.47;3.27;;;14.70;99.90;;;;;;5062505;28;20654;-93
2022/04/26 16:51:59;;;;;;;3.93;2.90;;;14.50;99.90;;;;;;5070931;28;20198;-92
2022/04/26 16:54:28;;;;;;;3.30;3.00;;;14.50;99.90;;;;;;5068668;28;20215;-92
2022/04/26 16:56:58;;;;;;;7.53;3.43;;;14.20;99.90;;;;;;5065251;28;20203;-92
2022/04/26 16:59:25;;;;;;;3.93;3.53;;;14.20;99.90;;;;;;5054974;28;20247;-93
2022/04/26 17:01:53;;;;;;;3.50;2.97;;;14.20;99.90;;;;;;5050839;28;20230;-93
2022/04/26 17:04:22;;;;;;;3.60;3.17;;;14.00;99.90;;;;;;5059320;28;20267;-91
2022/04/26 17:06:51;;;;;;;3.60;3.30;;;14.20;99.90;;;;;;5072525;28;20206;-92
2022/04/26 17:09:20;;;;;;;6.33;3.30;;;14.20;99.90;;;;;;5072480;28;20203;-90
2022/04/26 17:11:49;;;;;;;6.67;3.30;;;14.50;99.90;;;;;;5068749;28;20222;-90
2022/04/26 17:14:21;;;;;;;3.83;3.37;;;14.30;99.90;;;;;;5066742;28;20342;-94
2022/04/26 17:16:49;;;;;;;3.13;2.93;;;14.00;99.90;;;;;;5070202;28;20703;-93
2022/04/26 17:19:18;;;;;;;5.27;3.30;;;14.30;99.90;;;;;;5071688;28;20286;-94
2022/04/26 17:21:47;;;;;;;3.27;3.00;;;14.00;99.90;;;;;;5071079;28;20288;-93